createdAt,value
2023-03-19T11:48:22.430Z,11.48
2023-03-19T11:51:50.010Z,11.50
2023-03-19T11:55:19.901Z,11.42
2023-03-19T11:58:52.045Z,11.14
2023-03-19T12:02:30.616Z,10.95
2023-03-19T12:06:19.106Z,11.28
2023-03-19T12:09:38.483Z,11.54
2023-03-19T12:13:08.751Z,11.49
2023-03-19T12:16:45.906Z,11.72
2023-03-19T12:20:19.896Z,11.66
2023-03-19T12:23:35.356Z,11.24
2023-03-19T12:27:06.562Z,11.04
2023-03-19T12:30:29.709Z,11.45
2023-03-19T12:34:05.645Z,11.69
2023-03-19T12:37:34.260Z,11.47
2023-03-19T12:40:49.118Z,10.91
2023-03-19T12:44:08.598Z,10.89
2023-03-19T12:47:26.858Z,11.30
2023-03-19T12:50:33.959Z,11.80
2023-03-19T12:53:59.336Z,12.14
2023-03-19T12:57:17.940Z,11.86
2023-03-19T13:00:51.557Z,11.59
2023-03-19T13:04:26.192Z,11.35
2023-03-19T13:07:44.344Z,11.48
2023-03-19T13:10:50.251Z,11.68
2023-03-19T13:14:12.343Z,11.49
2023-03-19T13:17:24.669Z,11.31
2023-03-19T13:20:55.944Z,11.42
2023-03-19T13:24:04.554Z,11.64
2023-03-19T13:27:12.442Z,11.95
2023-03-19T13:30:31.568Z,12.17
2023-03-19T13:33:42.229Z,12.43
2023-03-19T13:36:54.490Z,12.53
2023-03-19T13:40:02.330Z,12.21
2023-03-19T13:43:27.418Z,12.01
2023-03-19T13:46:30.259Z,11.91
2023-03-19T13:49:45.379Z,11.87
2023-03-19T13:53:08.917Z,11.96
2023-03-19T13:56:29.108Z,11.95
2023-03-19T13:59:43.427Z,11.98
2023-03-19T14:02:58.941Z,12.10
2023-03-19T14:06:11.672Z,12.18
2023-03-19T14:09:21.514Z,12.28
2023-03-19T14:12:36.729Z,12.46
2023-03-19T14:15:43.205Z,12.71
2023-03-19T14:18:51.143Z,12.85
2023-03-19T14:22:02.617Z,12.78
2023-03-19T14:25:23.354Z,12.75
2023-03-19T14:28:32.247Z,12.39
2023-03-19T14:31:56.643Z,12.18
2023-03-19T14:35:06.752Z,12.31
2023-03-19T14:38:12.722Z,12.29
2023-03-19T14:41:18.523Z,12.55
2023-03-19T14:44:45.851Z,12.81
2023-03-19T14:48:15.748Z,12.93
2023-03-19T14:52:06.931Z,12.73
2023-03-19T14:55:19.693Z,12.48
2023-03-19T14:58:26.909Z,12.57
2023-03-19T15:01:34.350Z,12.60
2023-03-19T15:04:41.437Z,12.64
2023-03-19T15:07:51.264Z,12.84
2023-03-19T15:11:05.118Z,12.61
2023-03-19T15:14:22.433Z,12.39
2023-03-19T15:17:51.603Z,12.24
2023-03-19T15:21:04.402Z,12.38
2023-03-19T15:24:11.829Z,12.52
2023-03-19T15:27:19.954Z,12.28
2023-03-19T15:30:53.871Z,12.12
2023-03-19T15:33:51.072Z,11.99
2023-03-19T15:37:01.500Z,11.87
2023-03-19T15:40:10.354Z,11.64
2023-03-19T15:43:16.923Z,11.43
2023-03-19T15:46:26.731Z,11.13
2023-03-19T15:49:52.641Z,10.81
2023-03-19T15:53:02.470Z,10.50
2023-03-19T15:56:10.096Z,10.22
2023-03-19T15:59:15.691Z,9.98
2023-03-19T16:02:29.747Z,9.75
2023-03-19T16:05:43.749Z,9.54
2023-03-19T16:08:50.552Z,9.34
2023-03-19T16:11:58.012Z,9.13
2023-03-19T16:15:04.311Z,8.96
2023-03-19T16:18:10.412Z,8.80
2023-03-19T16:21:29.964Z,8.63
2023-03-19T16:24:47.073Z,8.50
2023-03-19T16:27:55.295Z,8.33
2023-03-19T16:31:04.620Z,8.18
2023-03-19T16:34:11.146Z,8.04
2023-03-19T16:37:17.184Z,7.92
2023-03-19T16:40:38.140Z,7.80
2023-03-19T16:43:45.863Z,7.68
2023-03-19T16:46:51.929Z,7.55
2023-03-19T16:50:00.709Z,7.43
2023-03-19T16:53:08.207Z,7.33
2023-03-19T16:56:15.897Z,7.23
2023-03-19T16:59:23.523Z,7.11
2023-03-19T17:02:31.901Z,7.00
2023-03-19T17:05:38.322Z,6.90
2023-03-19T17:08:46.719Z,6.83
2023-03-19T17:11:54.793Z,6.74
2023-03-19T17:15:02.730Z,6.67
2023-03-19T17:18:09.256Z,6.59
2023-03-19T17:21:24.804Z,6.52
2023-03-19T17:24:38.751Z,6.45
2023-03-19T17:27:46.393Z,6.40
2023-03-19T17:30:53.623Z,6.34
2023-03-19T17:33:59.010Z,6.30
2023-03-19T17:37:11.131Z,6.26
2023-03-19T17:40:17.378Z,6.22
2023-03-19T17:43:26.410Z,6.16
2023-03-19T17:46:37.414Z,6.10
2023-03-19T17:49:48.076Z,6.04
2023-03-19T17:52:55.183Z,6.00
2023-03-19T17:56:03.146Z,5.94
2023-03-19T17:59:10.481Z,5.87
2023-03-19T18:02:17.267Z,5.80
2023-03-19T18:05:38.122Z,5.73
2023-03-19T18:08:45.132Z,5.67
2023-03-19T18:11:51.379Z,5.61
2023-03-19T18:14:58.860Z,5.59
2023-03-19T18:18:11.550Z,5.53
2023-03-19T18:21:17.961Z,5.50
2023-03-19T18:24:25.407Z,5.48
2023-03-19T18:27:33.366Z,5.40
2023-03-19T18:30:38.958Z,5.37
2023-03-19T18:33:46.533Z,5.33
2023-03-19T18:36:52.629Z,5.28
2023-03-19T18:40:00.714Z,5.23
2023-03-19T18:43:08.294Z,5.20
2023-03-19T18:46:15.833Z,5.14
2023-03-19T18:49:35.346Z,5.07
2023-03-19T18:52:41.093Z,4.99
2023-03-19T18:55:48.285Z,4.94
2023-03-19T18:58:53.933Z,4.90
2023-03-19T19:02:00.329Z,4.87
2023-03-19T19:05:08.851Z,4.78
2023-03-19T19:08:18.088Z,4.73
2023-03-19T19:11:27.393Z,4.70
2023-03-19T19:14:37.517Z,4.65
2023-03-19T19:17:44.811Z,4.63
2023-03-19T19:20:51.525Z,4.61
2023-03-19T19:23:57.606Z,4.59
2023-03-19T19:27:08.422Z,4.58
2023-03-19T19:30:18.616Z,4.57
2023-03-19T19:33:36.155Z,4.57
2023-03-19T19:36:42.842Z,4.60
2023-03-19T19:39:48.318Z,4.63
2023-03-19T19:42:55.152Z,4.65
2023-03-19T19:46:04.311Z,4.66
2023-03-19T19:49:13.551Z,4.63
2023-03-19T19:52:20.704Z,4.60
2023-03-19T19:55:27.203Z,4.56
2023-03-19T19:58:40.219Z,4.48
2023-03-19T20:01:47.293Z,4.42
2023-03-19T20:04:54.987Z,4.38
2023-03-19T20:08:00.161Z,4.29
2023-03-19T20:11:06.283Z,4.26
2023-03-19T20:14:13.909Z,4.21
2023-03-19T20:17:20.711Z,4.11
2023-03-19T20:20:41.184Z,4.08
2023-03-19T20:23:48.210Z,4.09
2023-03-19T20:26:55.211Z,4.12
2023-03-19T20:30:02.269Z,4.10
2023-03-19T20:33:08.955Z,4.10
2023-03-19T20:36:17.698Z,4.11
2023-03-19T20:39:26.252Z,4.12
2023-03-19T20:42:32.509Z,4.10
2023-03-19T20:45:44.910Z,4.08
2023-03-19T20:48:51.269Z,4.05
2023-03-19T20:51:56.639Z,4.04
2023-03-19T20:55:04.115Z,4.04
2023-03-19T20:58:10.237Z,4.02
2023-03-19T21:01:17.319Z,4.01
2023-03-19T21:04:28.862Z,3.99
2023-03-19T21:07:46.884Z,3.91
2023-03-19T21:10:57.524Z,3.85
2023-03-19T21:14:06.095Z,3.82
2023-03-19T21:17:12.506Z,3.80
2023-03-19T21:20:21.140Z,3.81
2023-03-19T21:23:49.332Z,3.80
2023-03-19T21:26:55.523Z,3.73
2023-03-19T21:30:02.291Z,3.67
2023-03-19T21:33:12.336Z,3.60
2023-03-19T21:36:20.754Z,3.52
2023-03-19T21:39:22.040Z,3.44
2023-03-19T21:42:17.509Z,3.34
2023-03-19T21:45:39.937Z,3.33
2023-03-19T21:48:47.711Z,3.33
2023-03-19T21:51:55.088Z,3.28
2023-03-19T21:55:00.740Z,3.30
2023-03-19T21:58:10.987Z,3.26
2023-03-19T22:01:18.382Z,3.26
2023-03-19T22:04:26.745Z,3.25
2023-03-19T22:07:32.980Z,3.27
2023-03-19T22:10:42.856Z,3.34
2023-03-19T22:13:51.147Z,3.41
2023-03-19T22:16:58.619Z,3.45
2023-03-19T22:20:05.725Z,3.47
2023-03-19T22:23:13.824Z,3.51
2023-03-19T22:26:23.386Z,3.52
2023-03-19T22:29:34.852Z,3.56
2023-03-19T22:32:41.756Z,3.55
2023-03-19T22:35:49.296Z,3.53
2023-03-19T22:38:57.100Z,3.48
2023-03-19T22:42:03.702Z,3.49
2023-03-19T22:45:08.461Z,3.52
2023-03-19T22:48:15.101Z,3.47
2023-03-19T22:51:22.024Z,3.45
2023-03-19T22:54:28.374Z,3.41
2023-03-19T22:57:34.465Z,3.33
2023-03-19T23:00:39.849Z,3.32
2023-03-19T23:03:49.099Z,3.29
2023-03-19T23:06:57.293Z,3.26
2023-03-19T23:10:03.198Z,3.17
2023-03-19T23:13:10.488Z,3.17
2023-03-19T23:16:16.605Z,3.19
2023-03-19T23:19:41.248Z,3.22
2023-03-19T23:22:49.376Z,3.23
2023-03-19T23:25:55.407Z,3.21
2023-03-19T23:29:02.115Z,3.13
2023-03-19T23:32:07.839Z,3.07
2023-03-19T23:35:14.670Z,3.06
2023-03-19T23:38:20.509Z,3.03
2023-03-19T23:41:37.742Z,3.02
2023-03-19T23:44:44.173Z,3.05
2023-03-19T23:47:52.055Z,3.06
2023-03-19T23:50:59.618Z,3.03
2023-03-19T23:54:06.032Z,2.94
2023-03-19T23:57:14.786Z,2.83
